createdAt,value
2018-10-16T00:01:32.480Z,32.60
2018-10-16T00:04:00.588Z,36.40
2018-10-16T00:06:28.719Z,33.93
2018-10-16T00:08:57.744Z,31.45
2018-10-16T00:11:25.883Z,35.00
2018-10-16T00:13:53.980Z,30.30
2018-10-16T00:16:23.987Z,37.65
2018-10-16T00:18:55.356Z,39.10
2018-10-16T00:21:23.516Z,34.20
2018-10-16T00:23:52.516Z,37.13
2018-10-16T00:26:22.511Z,29.45
2018-10-16T00:28:51.534Z,38.40
2018-10-16T00:31:20.489Z,36.60
2018-10-16T00:33:49.513Z,30.65
2018-10-16T00:36:18.498Z,35.00
2018-10-16T00:38:47.465Z,34.80
2018-10-16T00:41:15.779Z,30.40
2018-10-16T00:43:43.865Z,37.90
2018-10-16T00:46:12.149Z,37.03
2018-10-16T00:48:40.165Z,27.95
2018-10-16T00:51:09.157Z,34.77
2018-10-16T00:53:38.169Z,29.70
2018-10-16T00:56:07.144Z,35.90
2018-10-16T00:58:35.303Z,36.80
2018-10-16T01:01:06.739Z,33.20
2018-10-16T01:03:35.785Z,32.60
2018-10-16T01:06:03.828Z,37.05
2018-10-16T01:08:32.868Z,31.50
2018-10-16T01:11:00.904Z,45.05
2018-10-16T01:15:58.062Z,39.17
2018-10-16T01:18:27.072Z,33.40
2018-10-16T01:20:55.267Z,37.85
2018-10-16T01:23:24.229Z,40.35
2018-10-16T01:25:53.277Z,38.20
2018-10-16T01:28:21.687Z,33.73
2018-10-16T01:30:53.397Z,33.80
2018-10-16T01:33:26.266Z,32.60
2018-10-16T01:35:56.301Z,33.60
2018-10-16T01:38:24.573Z,29.20
2018-10-16T01:40:53.540Z,31.80
2018-10-16T01:43:21.509Z,29.60
2018-10-16T01:45:51.501Z,32.60
2018-10-16T01:48:19.815Z,31.95
2018-10-16T01:50:48.008Z,30.40
2018-10-16T01:53:16.753Z,33.40
2018-10-16T01:58:13.060Z,31.40
2018-10-16T02:00:42.119Z,35.25
2018-10-16T02:05:38.362Z,41.30
2018-10-16T02:08:07.429Z,36.30
2018-10-16T02:10:40.021Z,33.10
2018-10-16T02:13:09.048Z,36.50
2018-10-16T02:15:37.251Z,32.80
2018-10-16T02:23:00.943Z,33.80
2018-10-16T02:25:30.957Z,32.20
2018-10-16T02:27:59.184Z,36.75
2018-10-16T02:33:01.660Z,34.30
2018-10-16T02:35:30.653Z,30.05
2018-10-16T02:37:58.683Z,34.35
2018-10-16T02:40:27.061Z,38.97
2018-10-16T02:42:55.413Z,35.25
2018-10-16T02:45:23.578Z,30.50
2018-10-16T02:47:51.609Z,33.70
2018-10-16T02:50:19.675Z,32.85
2018-10-16T02:52:47.680Z,31.30
2018-10-16T02:55:15.891Z,39.50
2018-10-16T02:57:44.129Z,33.03
2018-10-16T03:02:39.643Z,35.30
2018-10-16T03:05:07.812Z,36.20
2018-10-16T03:07:36.871Z,37.80
2018-10-16T03:10:05.112Z,35.93
2018-10-16T03:12:33.215Z,38.65
2018-10-16T03:15:01.237Z,33.70
2018-10-16T03:17:29.242Z,34.40
2018-10-16T03:19:57.385Z,35.50
2018-10-16T03:22:25.431Z,33.35
2018-10-16T03:24:53.577Z,41.60
2018-10-16T03:27:21.792Z,36.35
2018-10-16T03:29:49.977Z,33.70
2018-10-16T03:32:18.001Z,35.73
2018-10-16T03:49:29.469Z,30.50
2018-10-16T03:51:57.772Z,35.05
2018-10-16T03:54:26.014Z,31.85
2018-10-16T03:59:19.061Z,33.10
2018-10-16T04:01:48.104Z,32.85
2018-10-16T04:04:16.804Z,34.10
2018-10-16T04:10:16.004Z,35.75
2018-10-16T04:12:43.994Z,32.70
2018-10-16T04:15:11.912Z,31.93
2018-10-16T04:17:41.283Z,37.80
2018-10-16T04:20:11.227Z,38.47
2018-10-16T04:22:40.123Z,36.17
2018-10-16T04:25:08.484Z,34.53
2018-10-16T04:27:38.396Z,33.70
2018-10-16T04:30:07.403Z,31.83
2018-10-16T04:32:36.286Z,38.03
2018-10-16T04:35:07.544Z,35.87
2018-10-16T04:37:39.304Z,41.67
2018-10-16T04:40:08.188Z,39.83
2018-10-16T04:42:37.060Z,37.03
2018-10-16T04:45:04.940Z,38.33
2018-10-16T04:47:32.838Z,36.17
2018-10-16T04:50:00.681Z,39.90
2018-10-16T04:52:33.340Z,37.70
2018-10-16T04:55:01.267Z,32.17
2018-10-16T04:57:29.069Z,35.53
2018-10-16T04:59:56.960Z,35.70
2018-10-16T05:02:26.832Z,39.73
2018-10-16T05:04:56.680Z,36.00
2018-10-16T05:07:29.857Z,31.90
2018-10-16T05:09:59.788Z,41.93
2018-10-16T05:12:27.648Z,31.67
2018-10-16T05:14:55.533Z,40.23
2018-10-16T05:17:24.607Z,47.60
2018-10-16T05:19:52.522Z,35.50
2018-10-16T05:22:20.455Z,38.43
2018-10-16T05:24:52.836Z,35.00
2018-10-16T05:27:20.708Z,33.53
2018-10-16T05:29:49.575Z,34.93
2018-10-16T05:32:17.447Z,40.03
2018-10-16T05:34:45.316Z,37.70
2018-10-16T05:37:15.232Z,36.60
2018-10-16T05:39:44.117Z,34.97
2018-10-16T05:42:14.008Z,40.87
2018-10-16T05:44:42.924Z,36.80
2018-10-16T05:47:11.832Z,35.73
2018-10-16T05:49:40.696Z,37.67
2018-10-16T05:52:13.073Z,34.87
2018-10-16T05:54:40.973Z,44.43
2018-10-16T05:57:09.836Z,35.47
2018-10-16T05:59:38.832Z,36.80
2018-10-16T06:02:08.080Z,45.03
2018-10-16T06:04:36.923Z,35.55
2018-10-16T06:07:08.389Z,39.00
2018-10-16T06:09:36.405Z,38.35
2018-10-16T06:12:04.298Z,33.20
2018-10-16T06:14:32.209Z,37.55
2018-10-16T06:17:00.179Z,41.47
2018-10-16T06:19:28.117Z,44.50
2018-10-16T06:21:57.021Z,41.27
2018-10-16T06:24:24.905Z,38.60
2018-10-16T06:26:52.840Z,39.30
2018-10-16T06:29:21.720Z,39.43
2018-10-16T06:31:49.611Z,41.67
2018-10-16T06:34:18.480Z,43.30
2018-10-16T06:36:46.344Z,36.70
2018-10-16T06:39:20.221Z,48.15
2018-10-16T06:41:48.159Z,51.70
2018-10-16T06:44:16.032Z,48.70
2018-10-16T06:46:45.905Z,58.87
2018-10-16T06:49:15.844Z,48.97
2018-10-16T06:51:43.699Z,42.35
2018-10-16T06:54:14.881Z,48.47
2018-10-16T06:56:42.818Z,48.60
2018-10-16T06:59:10.655Z,46.13
2018-10-16T07:01:39.501Z,43.00
2018-10-16T07:04:07.428Z,42.30
2018-10-16T07:06:36.781Z,64.30
2018-10-16T07:09:06.380Z,48.57
2018-10-16T07:11:37.223Z,43.80
2018-10-16T07:14:08.912Z,50.30
2018-10-16T07:16:40.480Z,50.57
2018-10-16T07:19:12.244Z,42.53
2018-10-16T07:21:42.404Z,45.30
2018-10-16T07:24:12.144Z,45.03
2018-10-16T07:26:40.156Z,44.20
2018-10-16T07:29:10.060Z,53.13
2018-10-16T07:31:37.983Z,53.47
2018-10-16T07:34:07.824Z,43.43
2018-10-16T07:36:36.732Z,45.47
2018-10-16T07:39:06.841Z,45.10
2018-10-16T07:41:35.732Z,37.57
2018-10-16T07:44:04.854Z,49.50
2018-10-16T07:46:33.740Z,43.47
2018-10-16T07:49:03.624Z,50.00
2018-10-16T07:51:38.224Z,50.87
2018-10-16T07:54:06.188Z,41.47
2018-10-16T07:56:34.348Z,49.83
2018-10-16T07:59:03.221Z,37.80
2018-10-16T08:01:32.087Z,40.30
2018-10-16T08:04:00.975Z,39.40
2018-10-16T08:06:29.864Z,41.40
2018-10-16T08:08:58.752Z,40.50
2018-10-16T08:11:26.703Z,37.10
2018-10-16T08:13:55.512Z,36.53
2018-10-16T08:16:26.420Z,39.33
2018-10-16T08:18:56.360Z,38.47
2018-10-16T08:21:25.258Z,37.43
2018-10-16T08:23:53.125Z,37.57
2018-10-16T08:26:23.079Z,35.70
2018-10-16T08:28:51.001Z,32.20
2018-10-16T08:31:22.108Z,33.80
2018-10-16T08:33:50.007Z,38.97
2018-10-16T08:36:24.022Z,30.60
2018-10-16T08:39:24.000Z,35.90
2018-10-16T08:42:01.367Z,32.50
2018-10-16T08:44:35.048Z,33.43
2018-10-16T08:47:09.693Z,33.47
2018-10-16T08:49:43.331Z,29.30
2018-10-16T08:52:11.290Z,29.20
2018-10-16T08:54:39.188Z,26.07
2018-10-16T08:57:10.758Z,40.50
2018-10-16T08:59:39.664Z,28.80
2018-10-16T09:02:08.534Z,30.40
2018-10-16T09:04:36.460Z,23.50
2018-10-16T09:07:04.585Z,26.60
2018-10-16T09:09:33.468Z,26.87
2018-10-16T09:12:02.360Z,29.83
2018-10-16T09:19:36.992Z,27.90
2018-10-16T09:27:09.387Z,27.90
2018-10-16T09:29:38.197Z,30.50
2018-10-16T11:01:56.302Z,30.73
2018-10-16T11:09:26.317Z,23.43
2018-10-16T11:11:59.173Z,29.50
2018-10-16T11:16:59.544Z,34.23
2018-10-16T11:19:31.102Z,26.37
2018-10-16T11:21:59.992Z,27.37
2018-10-16T11:24:31.538Z,26.73
2018-10-16T11:27:03.327Z,24.27
2018-10-16T11:29:32.160Z,25.40
2018-10-16T11:32:00.084Z,26.77
2018-10-16T11:34:28.914Z,33.60
2018-10-16T11:37:02.622Z,22.23
2018-10-16T11:39:30.404Z,21.10
2018-10-16T15:52:29.704Z,31.20
2018-10-16T15:55:01.249Z,22.73
2018-10-16T15:57:37.372Z,25.83
2018-10-16T16:00:10.020Z,35.13
2018-10-16T16:02:38.947Z,30.83
2018-10-16T16:05:06.937Z,27.50
2018-10-16T16:07:35.820Z,37.50
2018-10-16T16:10:09.032Z,27.43
2018-10-16T16:12:38.920Z,33.70
2018-10-16T16:15:08.421Z,33.47
2018-10-16T16:17:37.441Z,41.37
2018-10-16T16:20:05.899Z,27.30
2018-10-16T16:22:35.720Z,35.87
2018-10-16T16:25:05.569Z,24.67
2018-10-16T16:27:34.476Z,34.50
2018-10-16T16:30:03.456Z,35.87
2018-10-16T16:32:32.331Z,30.90
2018-10-16T16:35:02.244Z,34.17
2018-10-16T16:37:32.184Z,30.40
2018-10-16T16:40:04.630Z,32.27
2018-10-16T16:42:32.507Z,30.87
2018-10-16T16:45:01.370Z,35.27
2018-10-16T16:47:33.344Z,37.47
2018-10-16T16:50:02.293Z,36.80
2018-10-16T16:52:30.124Z,35.30
2018-10-16T16:54:59.020Z,37.50
2018-10-16T16:57:27.921Z,34.57
2018-10-16T16:59:56.775Z,40.23
2018-10-16T17:02:25.661Z,36.37
2018-10-16T17:04:55.558Z,42.40
2018-10-16T17:07:23.449Z,38.03
2018-10-16T17:09:56.197Z,43.20
2018-10-16T17:12:24.072Z,40.27
2018-10-16T17:14:52.997Z,50.07
2018-10-16T17:17:22.879Z,44.73
2018-10-16T17:19:51.825Z,48.27
2018-10-16T17:22:20.668Z,41.40
2018-10-16T17:24:51.833Z,39.97
2018-10-16T17:27:19.500Z,31.27
2018-10-16T17:29:47.371Z,40.40
2018-10-16T17:32:16.339Z,36.43
2018-10-16T17:34:44.216Z,32.17
2018-10-16T17:57:06.215Z,39.00
2018-10-16T18:04:35.221Z,37.30
2018-10-16T18:07:04.299Z,32.97
2018-10-16T18:09:32.184Z,38.00
2018-10-16T18:12:00.051Z,41.30
2018-10-16T18:14:34.364Z,43.03
2018-10-16T18:17:07.576Z,39.43
2018-10-16T18:19:43.740Z,33.30
2018-10-16T18:22:12.696Z,34.90
2018-10-16T18:24:41.607Z,35.80
2018-10-16T18:27:10.540Z,37.70
2018-10-16T18:29:41.865Z,42.70
2018-10-16T18:32:15.536Z,39.07
2018-10-16T18:34:44.424Z,40.50
2018-10-16T18:37:15.953Z,41.77
2018-10-16T18:39:43.971Z,36.23
2018-10-16T18:42:11.832Z,39.43
2018-10-16T18:44:39.660Z,41.50
2018-10-16T18:47:07.536Z,30.70
2018-10-16T18:49:35.423Z,43.87
2018-10-16T18:52:03.512Z,53.33
2018-10-16T18:54:32.576Z,51.73
2018-10-16T18:57:00.762Z,49.37
2018-10-16T18:59:29.802Z,44.33
2018-10-16T19:01:57.711Z,52.10
2018-10-16T19:04:26.613Z,54.83
2018-10-16T19:06:54.457Z,41.40
2018-10-16T19:09:22.377Z,46.30
2018-10-16T19:11:58.324Z,48.43
2018-10-16T19:14:29.464Z,45.40
2018-10-16T19:16:58.304Z,50.67
2018-10-16T19:19:28.124Z,44.97
2018-10-16T19:21:57.066Z,44.67
2018-10-16T19:24:28.388Z,49.77
2018-10-16T19:26:58.336Z,50.20
2018-10-16T19:29:29.860Z,51.03
2018-10-16T19:31:59.025Z,47.60
2018-10-16T19:34:34.924Z,52.80
2018-10-16T19:37:17.200Z,48.30
2018-10-16T19:42:13.183Z,51.50
2018-10-16T19:44:48.746Z,51.70
2018-10-16T19:47:17.876Z,55.90
2018-10-16T19:49:48.909Z,45.90
2018-10-16T19:52:21.537Z,54.07
2018-10-16T19:54:51.410Z,50.43
2018-10-16T19:57:20.344Z,49.90
2018-10-16T19:59:48.531Z,56.87
2018-10-16T20:02:22.396Z,55.73
2018-10-16T20:04:50.360Z,60.47
2018-10-16T20:07:18.431Z,44.90
2018-10-16T20:09:47.237Z,51.87
2018-10-16T20:12:20.088Z,54.93
2018-10-16T20:14:48.016Z,51.03
2018-10-16T20:17:19.638Z,44.20
2018-10-16T20:19:47.577Z,62.13
2018-10-16T20:22:15.548Z,52.60
2018-10-16T20:24:44.600Z,42.23
2018-10-16T20:27:14.376Z,59.07
2018-10-16T20:29:44.296Z,49.57
2018-10-16T20:32:16.753Z,44.53
2018-10-16T20:34:46.740Z,48.10
2018-10-16T20:37:14.820Z,58.07
2018-10-16T20:39:42.621Z,47.43
2018-10-16T20:42:12.611Z,55.03
2018-10-16T20:44:41.437Z,56.97
2018-10-16T20:47:15.034Z,56.17
2018-10-16T20:49:46.826Z,53.27
2018-10-16T20:52:18.552Z,51.67
2018-10-16T20:54:50.123Z,51.10
2018-10-16T20:57:21.768Z,51.20
2018-10-16T20:59:49.728Z,55.57
2018-10-16T21:02:22.913Z,42.63
2018-10-16T21:04:54.757Z,53.67
2018-10-16T21:07:22.604Z,60.53
2018-10-16T21:09:50.476Z,46.63
2018-10-16T21:12:18.388Z,50.43
2018-10-16T21:14:47.279Z,53.53
2018-10-16T21:17:17.142Z,48.17
2018-10-16T21:19:45.031Z,48.83
2018-10-16T21:22:13.271Z,57.57
2018-10-16T21:24:42.116Z,55.77
2018-10-16T21:27:11.347Z,55.27
2018-10-16T21:29:39.280Z,51.97
2018-10-16T21:32:08.755Z,54.27
2018-10-16T21:34:41.639Z,50.67
2018-10-16T21:37:09.572Z,55.20
2018-10-16T21:39:38.387Z,52.87
2018-10-16T21:42:06.282Z,53.47
2018-10-16T21:44:34.195Z,62.10
2018-10-16T21:47:02.160Z,55.20
2018-10-16T21:49:30.004Z,57.50
2018-10-16T21:51:58.852Z,52.30
2018-10-16T21:54:27.739Z,58.30
2018-10-16T21:56:55.632Z,59.33
2018-10-16T21:59:25.774Z,56.60
2018-10-16T22:01:59.225Z,52.00
2018-10-16T22:04:27.107Z,53.10
2018-10-16T22:06:56.056Z,54.63
2018-10-16T22:09:23.951Z,57.53
2018-10-16T22:11:55.414Z,52.10
2018-10-16T22:14:23.299Z,53.50
2018-10-16T22:16:51.217Z,52.80
2018-10-16T22:21:46.176Z,55.65
2018-10-16T22:29:12.740Z,55.60
2018-10-16T22:31:40.579Z,57.20
2018-10-16T22:34:14.079Z,51.77
2018-10-16T22:36:41.984Z,51.90
2018-10-16T22:39:11.328Z,55.60
2018-10-16T22:41:40.198Z,53.63
2018-10-16T22:44:08.595Z,59.27
2018-10-16T22:46:36.883Z,56.37
2018-10-16T22:49:05.051Z,51.77
2018-10-16T22:51:32.894Z,59.43
2018-10-16T22:54:01.760Z,72.30
2018-10-16T22:56:30.651Z,56.73
2018-10-16T22:58:58.516Z,60.17
2018-10-16T23:01:26.399Z,59.07
2018-10-16T23:03:55.255Z,53.73
2018-10-16T23:06:23.146Z,56.93
2018-10-16T23:08:53.050Z,56.73
2018-10-16T23:11:21.006Z,62.63
2018-10-16T23:13:49.813Z,61.87
2018-10-16T23:16:17.716Z,69.20
2018-10-16T23:18:45.618Z,66.37
2018-10-16T23:21:18.427Z,62.43
2018-10-16T23:23:46.312Z,60.83
2018-10-16T23:26:14.159Z,56.47
2018-10-16T23:28:44.091Z,58.13
2018-10-16T23:31:15.303Z,60.87
2018-10-16T23:33:44.107Z,52.67
2018-10-16T23:36:11.981Z,57.90
2018-10-16T23:38:39.835Z,58.00
2018-10-16T23:41:09.783Z,58.90
2018-10-16T23:43:38.665Z,56.00
2018-10-16T23:46:08.594Z,60.30
2018-10-16T23:48:37.487Z,63.33
2018-10-16T23:51:05.536Z,62.60
2018-10-16T23:53:37.364Z,58.73
2018-10-16T23:56:06.279Z,59.93
2018-10-16T23:58:34.491Z,59.37
